sensor_id;sensor_type;location;lat;lon;timestamp;temperature;humidity
45685;DHT22;46836;48.388;16.210;2024-01-15T00:01:02;-1.00;99.90
45685;DHT22;46836;48.388;16.210;2024-01-15T00:03:30;-1.00;99.90
45685;DHT22;46836;48.388;16.210;2024-01-15T00:05:57;-0.90;99.90
45685;DHT22;46836;48.388;16.210;2024-01-15T00:08:24;-1.00;99.90
45685;DHT22;46836;48.388;16.210;2024-01-15T00:10:51;-1.00;99.90
45685;DHT22;46836;48.388;16.210;2024-01-15T00:13:18;-1.00;99.90
45685;DHT22;46836;48.388;16.210;2024-01-15T00:15:45;-1.10;99.90
45685;DHT22;46836;48.388;16.210;2024-01-15T00:18:12;-1.20;99.90
45685;DHT22;46836;48.388;16.210;2024-01-15T00:20:39;-1.20;99.90
45685;DHT22;46836;48.388;16.210;2024-01-15T00:23:06;-1.20;99.90
45685;DHT22;46836;48.388;16.210;2024-01-15T00:25:33;-1.30;99.90
45685;DHT22;46836;48.388;16.210;2024-01-15T00:28:01;-1.30;99.90
45685;DHT22;46836;48.388;16.210;2024-01-15T00:30:28;-1.40;99.90
45685;DHT22;46836;48.388;16.210;2024-01-15T00:32:55;-1.40;99.90
45685;DHT22;46836;48.388;16.210;2024-01-15T00:35:22;-1.40;99.90
45685;DHT22;46836;48.388;16.210;2024-01-15T00:37:49;-1.40;99.90
45685;DHT22;46836;48.388;16.210;2024-01-15T00:40:16;-1.30;99.90
45685;DHT22;46836;48.388;16.210;2024-01-15T00:42:43;-1.30;99.90
45685;DHT22;46836;48.388;16.210;2024-01-15T00:45:10;-1.20;99.90
45685;DHT22;46836;48.388;16.210;2024-01-15T00:47:37;-1.10;99.90
45685;DHT22;46836;48.388;16.210;2024-01-15T00:50:05;-1.10;99.90
45685;DHT22;46836;48.388;16.210;2024-01-15T00:52:32;-1.00;99.90
45685;DHT22;46836;48.388;16.210;2024-01-15T00:54:59;-1.00;99.90
45685;DHT22;46836;48.388;16.210;2024-01-15T00:57:26;-0.90;99.90
45685;DHT22;46836;48.388;16.210;2024-01-15T00:59:54;-1.00;99.90
45685;DHT22;46836;48.388;16.210;2024-01-15T01:02:21;-0.90;99.90
45685;DHT22;46836;48.388;16.210;2024-01-15T01:04:48;-0.90;99.90
45685;DHT22;46836;48.388;16.210;2024-01-15T01:07:15;-0.90;99.90
45685;DHT22;46836;48.388;16.210;2024-01-15T01:09:42;-0.80;99.90
45685;DHT22;46836;48.388;16.210;2024-01-15T01:12:10;-0.80;99.90
45685;DHT22;46836;48.388;16.210;2024-01-15T01:14:38;-0.80;99.90
45685;DHT22;46836;48.388;16.210;2024-01-15T01:17:05;-0.80;99.90
45685;DHT22;46836;48.388;16.210;2024-01-15T01:19:32;-0.90;99.90
45685;DHT22;46836;48.388;16.210;2024-01-15T01:22:00;-0.90;99.90
45685;DHT22;46836;48.388;16.210;2024-01-15T01:24:27;-0.90;99.90
45685;DHT22;46836;48.388;16.210;2024-01-15T01:26:54;-0.90;99.90
45685;DHT22;46836;48.388;16.210;2024-01-15T01:29:21;-0.90;99.90
45685;DHT22;46836;48.388;16.210;2024-01-15T01:31:49;-1.00;99.90
45685;DHT22;46836;48.388;16.210;2024-01-15T01:34:17;-1.00;99.90
45685;DHT22;46836;48.388;16.210;2024-01-15T01:36:44;-0.90;99.90
45685;DHT22;46836;48.388;16.210;2024-01-15T01:39:11;-1.00;99.90
45685;DHT22;46836;48.388;16.210;2024-01-15T01:41:39;-1.00;99.90
45685;DHT22;46836;48.388;16.210;2024-01-15T01:44:06;-1.00;99.90
45685;DHT22;46836;48.388;16.210;2024-01-15T01:46:36;-1.10;99.90
45685;DHT22;46836;48.388;16.210;2024-01-15T01:49:08;-1.10;99.90
45685;DHT22;46836;48.388;16.210;2024-01-15T01:51:36;-1.10;99.90
45685;DHT22;46836;48.388;16.210;2024-01-15T01:54:06;-1.20;99.90
45685;DHT22;46836;48.388;16.210;2024-01-15T01:56:35;-1.20;99.90
45685;DHT22;46836;48.388;16.210;2024-01-15T01:59:04;-1.20;99.90
45685;DHT22;46836;48.388;16.210;2024-01-15T02:01:32;-1.20;99.90
45685;DHT22;46836;48.388;16.210;2024-01-15T02:04:00;-1.20;99.90
45685;DHT22;46836;48.388;16.210;2024-01-15T02:06:27;-1.20;99.90
45685;DHT22;46836;48.388;16.210;2024-01-15T02:08:55;-1.20;99.90
45685;DHT22;46836;48.388;16.210;2024-01-15T02:11:22;-1.10;99.90
45685;DHT22;46836;48.388;16.210;2024-01-15T02:13:49;-1.10;99.90
45685;DHT22;46836;48.388;16.210;2024-01-15T02:16:17;-1.00;99.90
45685;DHT22;46836;48.388;16.210;2024-01-15T02:18:46;-0.90;99.90
45685;DHT22;46836;48.388;16.210;2024-01-15T02:21:13;-0.90;99.90
45685;DHT22;46836;48.388;16.210;2024-01-15T02:23:40;-0.80;99.90
45685;DHT22;46836;48.388;16.210;2024-01-15T02:26:08;-0.80;99.90
45685;DHT22;46836;48.388;16.210;2024-01-15T02:28:36;-0.80;99.90
45685;DHT22;46836;48.388;16.210;2024-01-15T02:31:03;-0.70;99.90
45685;DHT22;46836;48.388;16.210;2024-01-15T02:33:30;-0.70;99.90
45685;DHT22;46836;48.388;16.210;2024-01-15T02:35:57;-0.60;99.90
45685;DHT22;46836;48.388;16.210;2024-01-15T02:38:24;-0.60;99.90
45685;DHT22;46836;48.388;16.210;2024-01-15T02:40:51;-0.60;99.90
45685;DHT22;46836;48.388;16.210;2024-01-15T02:43:18;-0.60;99.90
45685;DHT22;46836;48.388;16.210;2024-01-15T02:45:46;-0.70;99.90
45685;DHT22;46836;48.388;16.210;2024-01-15T02:48:16;-0.70;99.90
45685;DHT22;46836;48.388;16.210;2024-01-15T02:50:43;-0.70;99.90
45685;DHT22;46836;48.388;16.210;2024-01-15T02:53:10;-0.80;99.90
45685;DHT22;46836;48.388;16.210;2024-01-15T02:55:37;-0.80;99.90
45685;DHT22;46836;48.388;16.210;2024-01-15T02:58:04;-0.80;99.90
45685;DHT22;46836;48.388;16.210;2024-01-15T03:00:31;-0.80;99.90
45685;DHT22;46836;48.388;16.210;2024-01-15T03:02:58;-0.90;99.90
45685;DHT22;46836;48.388;16.210;2024-01-15T03:05:26;-0.90;99.90
45685;DHT22;46836;48.388;16.210;2024-01-15T03:07:53;-0.90;99.90
45685;DHT22;46836;48.388;16.210;2024-01-15T03:10:20;-0.90;99.90
45685;DHT22;46836;48.388;16.210;2024-01-15T03:12:47;-0.90;99.90
45685;DHT22;46836;48.388;16.210;2024-01-15T03:15:14;-1.00;99.90
45685;DHT22;46836;48.388;16.210;2024-01-15T03:17:42;-1.00;99.90
45685;DHT22;46836;48.388;16.210;2024-01-15T03:20:10;-1.00;99.90
45685;DHT22;46836;48.388;16.210;2024-01-15T03:22:38;-1.00;99.90
45685;DHT22;46836;48.388;16.210;2024-01-15T03:25:06;-1.00;99.90
45685;DHT22;46836;48.388;16.210;2024-01-15T03:27:34;-1.00;99.90
45685;DHT22;46836;48.388;16.210;2024-01-15T03:30:01;-1.00;99.90
45685;DHT22;46836;48.388;16.210;2024-01-15T03:32:29;-1.00;99.90
45685;DHT22;46836;48.388;16.210;2024-01-15T03:34:56;-1.00;99.90
45685;DHT22;46836;48.388;16.210;2024-01-15T03:37:24;-1.00;99.90
45685;DHT22;46836;48.388;16.210;2024-01-15T03:39:51;-1.00;99.90
45685;DHT22;46836;48.388;16.210;2024-01-15T03:42:18;-1.00;99.90
45685;DHT22;46836;48.388;16.210;2024-01-15T03:44:45;-1.00;99.90
45685;DHT22;46836;48.388;16.210;2024-01-15T03:47:12;-1.00;99.90
45685;DHT22;46836;48.388;16.210;2024-01-15T03:49:39;-1.00;99.90
45685;DHT22;46836;48.388;16.210;2024-01-15T03:52:07;-0.90;99.90
45685;DHT22;46836;48.388;16.210;2024-01-15T03:54:34;-0.90;99.90
45685;DHT22;46836;48.388;16.210;2024-01-15T03:57:01;-0.90;99.90
45685;DHT22;46836;48.388;16.210;2024-01-15T03:59:28;-0.90;99.90
45685;DHT22;46836;48.388;16.210;2024-01-15T04:01:55;-0.80;99.90
45685;DHT22;46836;48.388;16.210;2024-01-15T04:04:22;-0.80;99.90
45685;DHT22;46836;48.388;16.210;2024-01-15T04:06:49;-0.80;99.90
45685;DHT22;46836;48.388;16.210;2024-01-15T04:09:17;-0.80;99.90
45685;DHT22;46836;48.388;16.210;2024-01-15T04:11:44;-0.80;99.90
45685;DHT22;46836;48.388;16.210;2024-01-15T04:14:11;-0.80;99.90
45685;DHT22;46836;48.388;16.210;2024-01-15T04:16:38;-0.80;99.90
45685;DHT22;46836;48.388;16.210;2024-01-15T04:19:05;-0.80;99.90
45685;DHT22;46836;48.388;16.210;2024-01-15T04:21:32;-0.80;99.90
45685;DHT22;46836;48.388;16.210;2024-01-15T04:23:59;-0.80;99.90
45685;DHT22;46836;48.388;16.210;2024-01-15T04:26:26;-0.80;99.90
45685;DHT22;46836;48.388;16.210;2024-01-15T04:28:53;-0.80;99.90
45685;DHT22;46836;48.388;16.210;2024-01-15T04:31:24;-0.80;99.90
45685;DHT22;46836;48.388;16.210;2024-01-15T04:33:52;-0.80;99.90
45685;DHT22;46836;48.388;16.210;2024-01-15T04:36:19;-0.80;99.90
45685;DHT22;46836;48.388;16.210;2024-01-15T04:38:47;-0.80;99.90
45685;DHT22;46836;48.388;16.210;2024-01-15T04:41:14;-0.80;99.90
45685;DHT22;46836;48.388;16.210;2024-01-15T04:43:42;-0.80;99.90
45685;DHT22;46836;48.388;16.210;2024-01-15T04:46:09;-0.80;99.90
45685;DHT22;46836;48.388;16.210;2024-01-15T04:48:37;-0.70;99.90
45685;DHT22;46836;48.388;16.210;2024-01-15T04:51:05;-0.70;99.90
45685;DHT22;46836;48.388;16.210;2024-01-15T04:53:34;-0.70;99.90
45685;DHT22;46836;48.388;16.210;2024-01-15T04:56:01;-0.70;99.90
45685;DHT22;46836;48.388;16.210;2024-01-15T04:58:29;-0.60;99.90
45685;DHT22;46836;48.388;16.210;2024-01-15T05:00:56;-0.60;99.90
45685;DHT22;46836;48.388;16.210;2024-01-15T05:03:23;-0.60;99.90
45685;DHT22;46836;48.388;16.210;2024-01-15T05:05:51;-0.60;99.90
45685;DHT22;46836;48.388;16.210;2024-01-15T05:08:18;-0.60;99.90
45685;DHT22;46836;48.388;16.210;2024-01-15T05:10:45;-0.60;99.90
45685;DHT22;46836;48.388;16.210;2024-01-15T05:13:12;-0.60;99.90
45685;DHT22;46836;48.388;16.210;2024-01-15T05:15:39;-0.50;99.90
45685;DHT22;46836;48.388;16.210;2024-01-15T05:18:07;-0.60;99.90
45685;DHT22;46836;48.388;16.210;2024-01-15T05:20:34;-0.50;99.90
45685;DHT22;46836;48.388;16.210;2024-01-15T05:23:01;-0.50;99.90
45685;DHT22;46836;48.388;16.210;2024-01-15T05:25:28;-0.50;99.90
45685;DHT22;46836;48.388;16.210;2024-01-15T05:27:55;-0.50;99.90
45685;DHT22;46836;48.388;16.210;2024-01-15T05:30:23;-0.50;99.90
45685;DHT22;46836;48.388;16.210;2024-01-15T05:32:50;-0.40;99.90
45685;DHT22;46836;48.388;16.210;2024-01-15T05:35:17;-0.40;99.90
45685;DHT22;46836;48.388;16.210;2024-01-15T05:37:45;-0.40;99.90
45685;DHT22;46836;48.388;16.210;2024-01-15T05:40:13;-0.40;99.90
45685;DHT22;46836;48.388;16.210;2024-01-15T05:42:41;-0.40;99.90
45685;DHT22;46836;48.388;16.210;2024-01-15T05:45:08;-0.50;99.90
45685;DHT22;46836;48.388;16.210;2024-01-15T05:47:36;-0.40;99.90
45685;DHT22;46836;48.388;16.210;2024-01-15T05:50:03;-0.50;99.90
45685;DHT22;46836;48.388;16.210;2024-01-15T05:52:30;-0.50;99.90
45685;DHT22;46836;48.388;16.210;2024-01-15T05:54:57;-0.50;99.90
45685;DHT22;46836;48.388;16.210;2024-01-15T05:57:24;-0.50;99.90
45685;DHT22;46836;48.388;16.210;2024-01-15T05:59:52;-0.50;99.90
45685;DHT22;46836;48.388;16.210;2024-01-15T06:02:19;-0.50;99.90
45685;DHT22;46836;48.388;16.210;2024-01-15T06:04:46;-0.50;99.90
45685;DHT22;46836;48.388;16.210;2024-01-15T06:07:13;-0.40;99.90
45685;DHT22;46836;48.388;16.210;2024-01-15T06:09:40;-0.40;99.90
45685;DHT22;46836;48.388;16.210;2024-01-15T06:12:08;-0.40;99.90
45685;DHT22;46836;48.388;16.210;2024-01-15T06:14:35;-0.40;99.90
45685;DHT22;46836;48.388;16.210;2024-01-15T06:17:02;-0.40;99.90
45685;DHT22;46836;48.388;16.210;2024-01-15T06:19:29;-0.50;99.90
45685;DHT22;46836;48.388;16.210;2024-01-15T06:21:57;-0.50;99.90
45685;DHT22;46836;48.388;16.210;2024-01-15T06:24:24;-0.50;99.90
45685;DHT22;46836;48.388;16.210;2024-01-15T06:26:51;-0.50;99.90
45685;DHT22;46836;48.388;16.210;2024-01-15T06:29:18;-0.50;99.90
45685;DHT22;46836;48.388;16.210;2024-01-15T06:31:45;-0.50;99.90
45685;DHT22;46836;48.388;16.210;2024-01-15T06:34:12;-0.50;99.90
45685;DHT22;46836;48.388;16.210;2024-01-15T06:36:40;-0.50;99.90
45685;DHT22;46836;48.388;16.210;2024-01-15T06:39:07;-0.50;99.90
45685;DHT22;46836;48.388;16.210;2024-01-15T06:41:34;-0.50;99.90
45685;DHT22;46836;48.388;16.210;2024-01-15T06:44:01;-0.40;99.90
45685;DHT22;46836;48.388;16.210;2024-01-15T06:46:28;-0.40;99.90
45685;DHT22;46836;48.388;16.210;2024-01-15T06:48:55;-0.40;99.90
45685;DHT22;46836;48.388;16.210;2024-01-15T06:51:22;-0.30;99.90
45685;DHT22;46836;48.388;16.210;2024-01-15T06:53:49;-0.30;99.90
45685;DHT22;46836;48.388;16.210;2024-01-15T06:56:16;-0.30;99.90
45685;DHT22;46836;48.388;16.210;2024-01-15T06:58:43;-0.20;99.90
45685;DHT22;46836;48.388;16.210;2024-01-15T07:01:10;-0.20;99.90
45685;DHT22;46836;48.388;16.210;2024-01-15T07:03:38;-0.10;99.90
45685;DHT22;46836;48.388;16.210;2024-01-15T07:06:05;0.10;99.90
45685;DHT22;46836;48.388;16.210;2024-01-15T07:08:32;0.10;99.90
45685;DHT22;46836;48.388;16.210;2024-01-15T07:10:59;0.20;99.90
45685;DHT22;46836;48.388;16.210;2024-01-15T07:13:30;0.20;99.90
45685;DHT22;46836;48.388;16.210;2024-01-15T07:15:57;0.30;99.90
45685;DHT22;46836;48.388;16.210;2024-01-15T07:18:24;0.30;99.90
45685;DHT22;46836;48.388;16.210;2024-01-15T07:20:52;0.40;99.90
45685;DHT22;46836;48.388;16.210;2024-01-15T07:23:19;0.40;99.90
45685;DHT22;46836;48.388;16.210;2024-01-15T07:25:46;0.40;99.90
45685;DHT22;46836;48.388;16.210;2024-01-15T07:28:13;0.40;99.90
45685;DHT22;46836;48.388;16.210;2024-01-15T07:30:40;0.40;99.90
45685;DHT22;46836;48.388;16.210;2024-01-15T07:33:08;0.50;99.90
45685;DHT22;46836;48.388;16.210;2024-01-15T07:35:35;0.50;99.90
45685;DHT22;46836;48.388;16.210;2024-01-15T07:38:02;0.60;99.90
45685;DHT22;46836;48.388;16.210;2024-01-15T07:40:29;0.60;99.90
45685;DHT22;46836;48.388;16.210;2024-01-15T07:42:56;0.60;99.90
45685;DHT22;46836;48.388;16.210;2024-01-15T07:45:23;0.70;99.90
45685;DHT22;46836;48.388;16.210;2024-01-15T07:47:51;0.70;99.90
45685;DHT22;46836;48.388;16.210;2024-01-15T07:50:18;0.70;99.90
45685;DHT22;46836;48.388;16.210;2024-01-15T07:52:45;0.80;99.90
45685;DHT22;46836;48.388;16.210;2024-01-15T07:55:12;0.80;99.90
45685;DHT22;46836;48.388;16.210;2024-01-15T07:57:40;0.80;99.90
45685;DHT22;46836;48.388;16.210;2024-01-15T08:00:07;0.90;99.90
45685;DHT22;46836;48.388;16.210;2024-01-15T08:02:36;0.90;99.90
45685;DHT22;46836;48.388;16.210;2024-01-15T08:05:04;0.90;99.90
45685;DHT22;46836;48.388;16.210;2024-01-15T08:07:31;1.00;99.90
45685;DHT22;46836;48.388;16.210;2024-01-15T08:09:58;1.00;99.90
45685;DHT22;46836;48.388;16.210;2024-01-15T08:12:25;1.00;99.90
45685;DHT22;46836;48.388;16.210;2024-01-15T08:14:52;1.10;99.90
45685;DHT22;46836;48.388;16.210;2024-01-15T08:17:21;1.20;99.90
45685;DHT22;46836;48.388;16.210;2024-01-15T08:19:48;1.20;99.90
45685;DHT22;46836;48.388;16.210;2024-01-15T08:22:15;1.30;99.90
45685;DHT22;46836;48.388;16.210;2024-01-15T08:24:44;1.40;99.90
45685;DHT22;46836;48.388;16.210;2024-01-15T08:27:11;1.50;99.90
45685;DHT22;46836;48.388;16.210;2024-01-15T08:29:38;1.50;99.90
45685;DHT22;46836;48.388;16.210;2024-01-15T08:32:05;1.60;99.90
45685;DHT22;46836;48.388;16.210;2024-01-15T08:34:32;1.60;99.90
45685;DHT22;46836;48.388;16.210;2024-01-15T08:37:00;1.70;99.90
45685;DHT22;46836;48.388;16.210;2024-01-15T08:39:27;1.70;99.90
45685;DHT22;46836;48.388;16.210;2024-01-15T08:41:54;1.80;99.90
45685;DHT22;46836;48.388;16.210;2024-01-15T08:44:21;1.80;99.90
45685;DHT22;46836;48.388;16.210;2024-01-15T08:46:48;1.90;99.90
45685;DHT22;46836;48.388;16.210;2024-01-15T08:49:15;2.00;99.90
45685;DHT22;46836;48.388;16.210;2024-01-15T08:51:42;2.00;99.90
45685;DHT22;46836;48.388;16.210;2024-01-15T08:54:09;2.10;99.90
45685;DHT22;46836;48.388;16.210;2024-01-15T08:56:36;2.10;99.90
45685;DHT22;46836;48.388;16.210;2024-01-15T08:59:03;2.20;99.90
45685;DHT22;46836;48.388;16.210;2024-01-15T09:01:30;2.30;99.90
45685;DHT22;46836;48.388;16.210;2024-01-15T09:03:58;2.50;99.90
45685;DHT22;46836;48.388;16.210;2024-01-15T09:06:25;2.70;99.90
45685;DHT22;46836;48.388;16.210;2024-01-15T09:08:52;2.70;99.90
45685;DHT22;46836;48.388;16.210;2024-01-15T09:11:19;2.90;99.90
45685;DHT22;46836;48.388;16.210;2024-01-15T09:13:46;3.00;99.90
45685;DHT22;46836;48.388;16.210;2024-01-15T09:16:13;3.10;99.90
45685;DHT22;46836;48.388;16.210;2024-01-15T09:18:40;3.20;99.90
45685;DHT22;46836;48.388;16.210;2024-01-15T09:21:07;3.20;99.90
45685;DHT22;46836;48.388;16.210;2024-01-15T09:23:35;3.20;99.90
45685;DHT22;46836;48.388;16.210;2024-01-15T09:26:02;3.10;99.90
45685;DHT22;46836;48.388;16.210;2024-01-15T09:28:29;3.10;99.90
45685;DHT22;46836;48.388;16.210;2024-01-15T09:30:56;3.10;99.90
45685;DHT22;46836;48.388;16.210;2024-01-15T09:33:23;3.10;99.90
45685;DHT22;46836;48.388;16.210;2024-01-15T09:35:50;3.20;99.90
45685;DHT22;46836;48.388;16.210;2024-01-15T09:38:17;3.20;99.90
45685;DHT22;46836;48.388;16.210;2024-01-15T09:40:46;3.30;99.90
45685;DHT22;46836;48.388;16.210;2024-01-15T09:43:14;3.30;99.90
45685;DHT22;46836;48.388;16.210;2024-01-15T09:45:43;3.30;99.90
45685;DHT22;46836;48.388;16.210;2024-01-15T09:48:11;3.40;99.90
45685;DHT22;46836;48.388;16.210;2024-01-15T09:50:39;3.40;99.90
45685;DHT22;46836;48.388;16.210;2024-01-15T09:53:06;3.30;99.90
45685;DHT22;46836;48.388;16.210;2024-01-15T09:55:33;3.20;99.90
45685;DHT22;46836;48.388;16.210;2024-01-15T09:58:01;3.30;99.90
45685;DHT22;46836;48.388;16.210;2024-01-15T10:00:29;3.30;99.90
45685;DHT22;46836;48.388;16.210;2024-01-15T10:02:59;3.30;99.90
45685;DHT22;46836;48.388;16.210;2024-01-15T10:05:29;3.30;99.90
45685;DHT22;46836;48.388;16.210;2024-01-15T10:07:56;3.50;99.90
45685;DHT22;46836;48.388;16.210;2024-01-15T10:10:24;3.50;99.90
45685;DHT22;46836;48.388;16.210;2024-01-15T10:12:51;3.50;99.90
45685;DHT22;46836;48.388;16.210;2024-01-15T10:15:22;3.50;99.90
45685;DHT22;46836;48.388;16.210;2024-01-15T10:17:50;3.40;99.90
45685;DHT22;46836;48.388;16.210;2024-01-15T10:20:17;3.40;99.90
45685;DHT22;46836;48.388;16.210;2024-01-15T10:22:45;3.40;99.90
45685;DHT22;46836;48.388;16.210;2024-01-15T10:25:15;3.40;99.90
45685;DHT22;46836;48.388;16.210;2024-01-15T10:27:42;3.40;99.90
45685;DHT22;46836;48.388;16.210;2024-01-15T10:30:10;3.40;99.90
45685;DHT22;46836;48.388;16.210;2024-01-15T10:32:37;3.50;99.90
45685;DHT22;46836;48.388;16.210;2024-01-15T10:35:07;3.40;99.90
45685;DHT22;46836;48.388;16.210;2024-01-15T10:37:34;3.40;99.90
45685;DHT22;46836;48.388;16.210;2024-01-15T10:40:02;3.30;99.90
45685;DHT22;46836;48.388;16.210;2024-01-15T10:42:32;3.30;99.90
45685;DHT22;46836;48.388;16.210;2024-01-15T10:44:59;3.30;99.90
45685;DHT22;46836;48.388;16.210;2024-01-15T10:47:26;3.30;99.90
45685;DHT22;46836;48.388;16.210;2024-01-15T10:49:53;3.30;99.90
45685;DHT22;46836;48.388;16.210;2024-01-15T10:52:22;3.30;99.90
45685;DHT22;46836;48.388;16.210;2024-01-15T10:54:49;3.40;99.90
45685;DHT22;46836;48.388;16.210;2024-01-15T10:57:18;3.30;99.90
45685;DHT22;46836;48.388;16.210;2024-01-15T10:59:46;3.30;99.90
45685;DHT22;46836;48.388;16.210;2024-01-15T11:02:14;3.40;99.90
45685;DHT22;46836;48.388;16.210;2024-01-15T11:04:42;3.50;99.90
45685;DHT22;46836;48.388;16.210;2024-01-15T11:07:11;3.60;99.90
45685;DHT22;46836;48.388;16.210;2024-01-15T11:09:39;3.50;99.90
45685;DHT22;46836;48.388;16.210;2024-01-15T11:12:13;3.50;99.90
45685;DHT22;46836;48.388;16.210;2024-01-15T11:14:45;3.60;99.90
45685;DHT22;46836;48.388;16.210;2024-01-15T11:17:13;3.60;99.90
45685;DHT22;46836;48.388;16.210;2024-01-15T11:19:48;3.50;99.90
45685;DHT22;46836;48.388;16.210;2024-01-15T11:25:12;3.50;99.90
45685;DHT22;46836;48.388;16.210;2024-01-15T11:27:45;3.60;99.90
45685;DHT22;46836;48.388;16.210;2024-01-15T11:30:15;3.60;99.90
45685;DHT22;46836;48.388;16.210;2024-01-15T11:32:42;3.60;99.90
45685;DHT22;46836;48.388;16.210;2024-01-15T11:35:10;3.50;99.90
45685;DHT22;46836;48.388;16.210;2024-01-15T11:43:00;3.20;99.90
45685;DHT22;46836;48.388;16.210;2024-01-15T11:45:30;3.10;99.90
45685;DHT22;46836;48.388;16.210;2024-01-15T11:48:16;3.00;99.90
45685;DHT22;46836;48.388;16.210;2024-01-15T11:50:49;3.00;99.90
45685;DHT22;46836;48.388;16.210;2024-01-15T11:55:51;3.00;99.90
45685;DHT22;46836;48.388;16.210;2024-01-15T11:58:18;3.00;99.90
45685;DHT22;46836;48.388;16.210;2024-01-15T12:00:48;2.90;99.90
45685;DHT22;46836;48.388;16.210;2024-01-15T12:03:24;2.80;99.90
45685;DHT22;46836;48.388;16.210;2024-01-15T12:05:54;2.80;99.90
45685;DHT22;46836;48.388;16.210;2024-01-15T12:08:23;2.90;99.90
45685;DHT22;46836;48.388;16.210;2024-01-15T12:10:51;3.00;99.90
45685;DHT22;46836;48.388;16.210;2024-01-15T12:13:18;3.20;99.90
45685;DHT22;46836;48.388;16.210;2024-01-15T12:15:47;3.20;99.90
45685;DHT22;46836;48.388;16.210;2024-01-15T12:18:17;3.10;99.90
45685;DHT22;46836;48.388;16.210;2024-01-15T12:20:46;3.10;99.90
45685;DHT22;46836;48.388;16.210;2024-01-15T12:23:15;3.00;99.90
45685;DHT22;46836;48.388;16.210;2024-01-15T12:25:44;2.90;99.90
45685;DHT22;46836;48.388;16.210;2024-01-15T12:28:12;2.90;99.90
45685;DHT22;46836;48.388;16.210;2024-01-15T12:30:39;2.80;99.90
45685;DHT22;46836;48.388;16.210;2024-01-15T12:33:07;2.80;99.90
45685;DHT22;46836;48.388;16.210;2024-01-15T12:35:36;2.70;99.90
45685;DHT22;46836;48.388;16.210;2024-01-15T12:38:04;2.60;99.90
45685;DHT22;46836;48.388;16.210;2024-01-15T12:40:33;2.60;99.90
45685;DHT22;46836;48.388;16.210;2024-01-15T12:43:03;2.60;99.90
45685;DHT22;46836;48.388;16.210;2024-01-15T12:45:30;2.70;99.90
45685;DHT22;46836;48.388;16.210;2024-01-15T12:47:58;2.70;99.90
45685;DHT22;46836;48.388;16.210;2024-01-15T12:50:27;2.80;99.90
45685;DHT22;46836;48.388;16.210;2024-01-15T12:52:54;2.70;99.90
45685;DHT22;46836;48.388;16.210;2024-01-15T12:55:21;2.70;99.90
45685;DHT22;46836;48.388;16.210;2024-01-15T12:57:49;2.70;99.90
45685;DHT22;46836;48.388;16.210;2024-01-15T13:00:20;2.60;99.90
45685;DHT22;46836;48.388;16.210;2024-01-15T13:02:47;2.60;99.90
45685;DHT22;46836;48.388;16.210;2024-01-15T13:05:17;2.60;99.90
45685;DHT22;46836;48.388;16.210;2024-01-15T13:07:45;2.70;99.90
45685;DHT22;46836;48.388;16.210;2024-01-15T13:10:12;2.80;99.90
45685;DHT22;46836;48.388;16.210;2024-01-15T13:12:40;2.80;99.90
45685;DHT22;46836;48.388;16.210;2024-01-15T13:15:09;2.80;99.90
45685;DHT22;46836;48.388;16.210;2024-01-15T13:17:42;2.80;99.90
45685;DHT22;46836;48.388;16.210;2024-01-15T13:20:11;2.90;99.90
45685;DHT22;46836;48.388;16.210;2024-01-15T13:22:40;2.90;99.90
45685;DHT22;46836;48.388;16.210;2024-01-15T13:25:11;2.80;99.90
45685;DHT22;46836;48.388;16.210;2024-01-15T13:27:38;2.70;99.90
45685;DHT22;46836;48.388;16.210;2024-01-15T13:30:08;2.70;99.90
45685;DHT22;46836;48.388;16.210;2024-01-15T13:32:36;2.70;99.90
45685;DHT22;46836;48.388;16.210;2024-01-15T13:35:03;2.70;99.90
45685;DHT22;46836;48.388;16.210;2024-01-15T13:37:36;2.60;99.90
45685;DHT22;46836;48.388;16.210;2024-01-15T13:40:05;2.70;99.90
45685;DHT22;46836;48.388;16.210;2024-01-15T13:42:35;2.70;99.90
45685;DHT22;46836;48.388;16.210;2024-01-15T13:45:05;2.70;99.90
45685;DHT22;46836;48.388;16.210;2024-01-15T13:47:33;2.70;99.90
45685;DHT22;46836;48.388;16.210;2024-01-15T13:50:00;2.80;99.90
45685;DHT22;46836;48.388;16.210;2024-01-15T13:52:27;2.80;99.90
45685;DHT22;46836;48.388;16.210;2024-01-15T13:54:54;2.80;99.90
45685;DHT22;46836;48.388;16.210;2024-01-15T13:57:22;2.90;99.90
45685;DHT22;46836;48.388;16.210;2024-01-15T13:59:49;2.90;99.90
45685;DHT22;46836;48.388;16.210;2024-01-15T14:02:17;2.90;99.90
45685;DHT22;46836;48.388;16.210;2024-01-15T14:04:48;2.90;99.90
45685;DHT22;46836;48.388;16.210;2024-01-15T14:07:16;2.90;99.90
45685;DHT22;46836;48.388;16.210;2024-01-15T14:09:44;2.90;99.90
45685;DHT22;46836;48.388;16.210;2024-01-15T14:12:11;2.90;99.90
45685;DHT22;46836;48.388;16.210;2024-01-15T14:14:39;2.90;99.90
45685;DHT22;46836;48.388;16.210;2024-01-15T14:17:07;2.90;99.90
45685;DHT22;46836;48.388;16.210;2024-01-15T14:19:34;2.90;99.90
45685;DHT22;46836;48.388;16.210;2024-01-15T14:22:03;2.90;99.90
45685;DHT22;46836;48.388;16.210;2024-01-15T14:24:30;2.90;99.90
45685;DHT22;46836;48.388;16.210;2024-01-15T14:26:57;2.90;99.90
45685;DHT22;46836;48.388;16.210;2024-01-15T14:29:25;2.90;99.90
45685;DHT22;46836;48.388;16.210;2024-01-15T14:31:54;2.90;99.90
45685;DHT22;46836;48.388;16.210;2024-01-15T14:34:21;2.90;99.90
45685;DHT22;46836;48.388;16.210;2024-01-15T14:36:51;3.00;99.90
45685;DHT22;46836;48.388;16.210;2024-01-15T14:39:24;2.90;99.90
45685;DHT22;46836;48.388;16.210;2024-01-15T14:41:52;3.00;99.90
45685;DHT22;46836;48.388;16.210;2024-01-15T14:44:19;3.00;99.90
45685;DHT22;46836;48.388;16.210;2024-01-15T14:46:48;3.00;99.90
45685;DHT22;46836;48.388;16.210;2024-01-15T14:49:15;2.90;99.90
45685;DHT22;46836;48.388;16.210;2024-01-15T14:51:44;2.90;99.90
45685;DHT22;46836;48.388;16.210;2024-01-15T14:54:11;2.90;99.90
45685;DHT22;46836;48.388;16.210;2024-01-15T14:56:39;2.90;99.90
45685;DHT22;46836;48.388;16.210;2024-01-15T14:59:06;2.90;99.90
45685;DHT22;46836;48.388;16.210;2024-01-15T15:01:33;2.90;99.90
45685;DHT22;46836;48.388;16.210;2024-01-15T15:04:00;2.90;99.90
45685;DHT22;46836;48.388;16.210;2024-01-15T15:06:28;2.90;99.90
45685;DHT22;46836;48.388;16.210;2024-01-15T15:08:55;2.90;99.90
45685;DHT22;46836;48.388;16.210;2024-01-15T15:11:25;2.90;99.90
45685;DHT22;46836;48.388;16.210;2024-01-15T15:13:52;2.90;99.90
45685;DHT22;46836;48.388;16.210;2024-01-15T15:16:20;2.80;99.90
45685;DHT22;46836;48.388;16.210;2024-01-15T15:18:47;2.80;99.90
45685;DHT22;46836;48.388;16.210;2024-01-15T15:21:14;2.70;99.90
45685;DHT22;46836;48.388;16.210;2024-01-15T15:23:41;2.70;99.90
45685;DHT22;46836;48.388;16.210;2024-01-15T15:26:09;2.80;99.90
45685;DHT22;46836;48.388;16.210;2024-01-15T15:28:36;2.70;99.90
45685;DHT22;46836;48.388;16.210;2024-01-15T15:31:07;2.80;99.90
45685;DHT22;46836;48.388;16.210;2024-01-15T15:33:35;2.70;99.90
45685;DHT22;46836;48.388;16.210;2024-01-15T15:36:04;2.70;99.90
45685;DHT22;46836;48.388;16.210;2024-01-15T15:38:33;2.70;99.90